createdAt,value
2019-04-23T00:03:58.412Z,5.28
2019-04-23T00:09:02.825Z,5.05
2019-04-23T00:13:58.139Z,4.90
2019-04-23T00:18:59.354Z,5.65
2019-04-23T00:24:10.327Z,5.28
2019-04-23T00:29:11.923Z,5.25
2019-04-23T00:34:16.590Z,4.97
2019-04-23T00:39:23.686Z,4.92
2019-04-23T00:44:32.504Z,5.12
2019-04-23T00:49:32.532Z,5.37
2019-04-23T00:54:32.670Z,5.08
2019-04-23T00:59:52.205Z,4.85
2019-04-23T01:04:47.704Z,4.78
2019-04-23T01:09:54.494Z,4.62
2019-04-23T01:14:55.411Z,5.10
2019-04-23T01:20:01.708Z,4.12
2019-04-23T01:24:50.809Z,4.35
2019-04-23T01:30:38.831Z,5.03
2019-04-23T01:35:29.077Z,5.33
2019-04-23T01:40:33.008Z,5.10
2019-04-23T01:45:30.719Z,4.45
2019-04-23T01:55:46.535Z,5.00
2019-04-23T02:00:52.882Z,4.33
2019-04-23T02:11:02.994Z,4.08
2019-04-23T02:16:06.699Z,4.60
2019-04-23T02:21:16.943Z,4.25
2019-04-23T02:26:30.553Z,4.30
2019-04-23T02:36:40.513Z,4.75
2019-04-23T02:46:53.951Z,4.20
2019-04-23T03:02:17.551Z,4.12
2019-04-23T03:07:16.152Z,4.70
2019-04-23T03:12:18.529Z,4.33
2019-04-23T03:17:37.145Z,3.80
2019-04-23T03:27:44.061Z,3.87
2019-04-23T03:38:06.779Z,3.95
2019-04-23T03:43:06.391Z,4.00
2019-04-23T03:48:16.813Z,3.90
2019-04-23T03:53:14.070Z,4.28
2019-04-23T03:58:33.494Z,4.37
2019-04-23T04:08:25.976Z,4.35
2019-04-23T04:18:54.255Z,3.65
2019-04-23T04:28:51.425Z,4.25
2019-04-23T04:34:11.225Z,3.92
2019-04-23T04:44:23.672Z,4.08
2019-04-23T04:54:14.067Z,4.28
2019-04-23T04:59:17.690Z,3.85
2019-04-23T05:04:33.137Z,4.30
2019-04-23T05:24:39.935Z,4.62
2019-04-23T05:29:54.305Z,5.05
2019-04-23T05:34:55.784Z,4.92
2019-04-23T05:40:08.685Z,5.65
2019-04-23T05:45:08.304Z,6.33
2019-04-23T05:55:15.331Z,6.28
2019-04-23T06:00:26.229Z,4.97
2019-04-23T06:05:25.031Z,5.72
2019-04-23T06:10:34.039Z,5.45
2019-04-23T06:15:32.151Z,6.17
2019-04-23T06:20:45.066Z,5.05
2019-04-23T06:25:57.723Z,5.47
2019-04-23T06:30:54.413Z,5.42
2019-04-23T06:36:03.437Z,6.55
2019-04-23T06:41:00.815Z,7.03
2019-04-23T06:46:05.426Z,6.15
2019-04-23T06:51:12.807Z,6.78
2019-04-23T06:56:19.166Z,6.12
2019-04-23T07:01:17.705Z,7.40
2019-04-23T07:16:32.915Z,7.10
2019-04-23T07:21:33.553Z,7.08
2019-04-23T07:26:42.053Z,7.12
2019-04-23T07:31:53.914Z,7.83
2019-04-23T07:36:55.090Z,7.12
2019-04-23T07:42:09.346Z,6.83
2019-04-23T07:47:27.595Z,7.05
2019-04-23T07:52:23.946Z,7.25
2019-04-23T08:02:30.176Z,7.80
2019-04-23T08:07:37.226Z,8.95
2019-04-23T08:12:40.553Z,8.68
2019-04-23T08:17:43.450Z,9.50
2019-04-23T08:22:56.857Z,9.38
2019-04-23T08:27:57.489Z,9.70
2019-04-23T08:33:04.269Z,8.80
2019-04-23T08:38:24.617Z,9.68
2019-04-23T08:43:29.594Z,9.28
2019-04-23T08:48:41.662Z,9.53
2019-04-23T08:53:37.750Z,9.08
2019-04-23T09:08:45.817Z,11.05
2019-04-23T09:18:53.063Z,10.30
2019-04-23T09:23:56.840Z,9.88
2019-04-23T09:29:10.079Z,10.50
2019-04-23T09:34:11.287Z,10.82
2019-04-23T09:39:20.541Z,10.03
2019-04-23T09:44:55.933Z,9.65
2019-04-23T09:49:47.320Z,9.60
2019-04-23T09:54:58.633Z,9.40
2019-04-23T09:59:58.131Z,9.45
2019-04-23T10:04:51.879Z,9.13
2019-04-23T10:09:42.390Z,9.38
2019-04-23T10:14:56.464Z,8.53
2019-04-23T10:19:50.959Z,9.03
2019-04-23T10:24:55.306Z,9.30
2019-04-23T10:29:59.612Z,9.25
2019-04-23T10:35:14.678Z,10.20
2019-04-23T10:40:15.416Z,9.68
2019-04-23T10:45:35.176Z,9.88
2019-04-23T10:56:02.802Z,10.08
2019-04-23T11:01:19.367Z,10.45
2019-04-23T11:06:17.649Z,9.88
2019-04-23T11:11:25.041Z,10.18
2019-04-23T11:16:44.831Z,9.98
2019-04-23T11:21:33.925Z,9.25
2019-04-23T11:26:37.035Z,8.90
2019-04-23T11:31:42.966Z,9.85
2019-04-23T11:41:51.722Z,9.35
2019-04-23T11:47:09.530Z,9.45
2019-04-23T11:52:08.313Z,9.40
2019-04-23T11:57:21.569Z,9.68
2019-04-23T12:02:40.090Z,9.58
2019-04-23T12:07:50.909Z,10.38
2019-04-23T12:12:53.426Z,9.78
2019-04-23T12:18:05.349Z,9.68
2019-04-23T12:28:13.601Z,9.35
2019-04-23T12:33:30.138Z,9.95
2019-04-23T12:38:23.925Z,9.50
2019-04-23T12:53:37.749Z,10.63
2019-04-23T12:58:33.922Z,9.70
2019-04-23T13:03:49.187Z,10.00
2019-04-23T13:08:54.312Z,9.78
2019-04-23T13:14:00.838Z,9.53
2019-04-23T13:19:15.070Z,11.73
2019-04-23T13:24:11.384Z,10.93
2019-04-23T13:29:19.521Z,11.03
2019-04-23T13:34:25.348Z,11.78
2019-04-23T13:39:24.443Z,11.20
2019-04-23T13:44:33.120Z,9.98
2019-04-23T13:49:37.423Z,9.93
2019-04-23T14:10:24.520Z,10.68
2019-04-23T14:15:36.943Z,10.05
2019-04-23T14:20:27.976Z,10.40
2019-04-23T14:25:52.086Z,10.60
2019-04-23T14:30:46.572Z,10.93
2019-04-23T14:35:45.448Z,11.08
2019-04-23T14:46:27.098Z,10.60
2019-04-23T14:51:18.290Z,10.70
2019-04-23T14:56:17.316Z,10.88
2019-04-23T15:11:44.145Z,12.68
2019-04-23T15:16:44.608Z,13.43
2019-04-23T15:31:59.294Z,24.95
2019-04-23T15:37:00.853Z,22.67
2019-04-23T15:47:04.562Z,20.57
2019-04-23T15:52:10.754Z,20.10
2019-04-23T15:57:07.153Z,19.07
2019-04-23T16:01:48.314Z,19.42
2019-04-23T16:06:51.950Z,19.25
2019-04-23T16:12:17.332Z,16.30
2019-04-23T16:17:32.678Z,19.35
2019-04-23T16:22:32.114Z,18.85
2019-04-23T16:27:36.628Z,19.65
2019-04-23T16:38:01.705Z,17.52
2019-04-23T16:43:07.423Z,17.40
2019-04-23T16:48:06.578Z,17.07
2019-04-23T16:53:22.320Z,17.62
2019-04-23T16:58:23.239Z,18.37
2019-04-23T17:08:45.351Z,18.45
2019-04-23T17:13:34.444Z,17.02
2019-04-23T17:18:31.427Z,17.10
2019-04-23T17:28:59.749Z,18.10
2019-04-23T17:33:54.547Z,18.60
2019-04-23T17:39:05.407Z,19.70
2019-04-23T17:44:18.082Z,17.35
2019-04-23T17:49:15.275Z,17.45
2019-04-23T17:59:27.870Z,18.17
2019-04-23T18:04:34.791Z,17.75
2019-04-23T18:09:37.865Z,17.20
2019-04-23T18:14:42.204Z,16.50
2019-04-23T18:19:56.524Z,16.55
2019-04-23T18:30:20.723Z,15.85
2019-04-23T18:35:28.003Z,17.35
2019-04-23T18:40:40.360Z,15.58
2019-04-23T18:45:45.336Z,14.90
2019-04-23T18:56:00.336Z,13.75
2019-04-23T19:01:14.065Z,13.93
2019-04-23T19:06:21.878Z,13.85
2019-04-23T19:11:46.119Z,14.03
2019-04-23T19:16:53.181Z,12.98
2019-04-23T19:42:09.929Z,13.00
2019-04-23T19:47:33.162Z,12.63
2019-04-23T19:52:46.803Z,12.33
2019-04-23T19:57:34.000Z,10.65
2019-04-23T20:02:48.133Z,11.30
2019-04-23T20:07:50.880Z,11.08
2019-04-23T20:12:59.023Z,10.95
2019-04-23T20:17:48.811Z,10.72
2019-04-23T20:22:58.270Z,10.55
2019-04-23T20:28:17.279Z,10.48
2019-04-23T20:38:40.285Z,9.80
2019-04-23T20:43:32.447Z,9.20
2019-04-23T20:48:46.948Z,9.73
2019-04-23T20:53:43.317Z,7.70
2019-04-23T20:58:48.193Z,9.18
2019-04-23T21:03:56.851Z,8.13
2019-04-23T21:09:22.718Z,8.33
2019-04-23T21:14:22.665Z,7.95
2019-04-23T21:19:02.516Z,8.15
2019-04-23T21:24:11.253Z,8.45
2019-04-23T21:29:17.619Z,7.97
2019-04-23T21:34:44.899Z,7.67
2019-04-23T21:39:53.551Z,7.87
2019-04-23T21:44:38.562Z,8.00
2019-04-23T21:50:04.642Z,7.37
2019-04-23T21:59:55.576Z,6.87
2019-04-23T22:15:12.631Z,6.70
2019-04-23T22:25:23.712Z,6.87
2019-04-23T22:30:31.436Z,6.80
2019-04-23T22:35:42.293Z,6.83
2019-04-23T22:40:41.533Z,7.58
2019-04-23T22:45:52.679Z,6.30
2019-04-23T22:50:57.475Z,6.55
2019-04-23T22:56:01.711Z,6.45
2019-04-23T23:01:19.976Z,6.30
2019-04-23T23:11:22.798Z,6.72
2019-04-23T23:16:30.330Z,6.28
2019-04-23T23:21:43.116Z,6.33
2019-04-23T23:26:50.001Z,6.42
2019-04-23T23:37:10.562Z,6.78
2019-04-23T23:47:12.687Z,7.08
2019-04-23T23:52:09.553Z,6.72
2019-04-23T23:57:16.494Z,6.22
